sensor_id;sensor_type;location;lat;lon;timestamp;P1;durP1;ratioP1;P2;durP2;ratioP2
22314;SDS011;11325;55.686;37.566;2024-01-25T00:01:35;23.38;;;10.03;;
22314;SDS011;11325;55.686;37.566;2024-01-25T00:04:04;24.40;;;10.13;;
22314;SDS011;11325;55.686;37.566;2024-01-25T00:06:33;25.82;;;9.73;;
22314;SDS011;11325;55.686;37.566;2024-01-25T00:09:01;19.32;;;9.58;;
22314;SDS011;11325;55.686;37.566;2024-01-25T00:11:31;20.90;;;9.68;;
22314;SDS011;11325;55.686;37.566;2024-01-25T00:14:01;21.97;;;9.85;;
22314;SDS011;11325;55.686;37.566;2024-01-25T00:16:31;23.95;;;9.70;;
22314;SDS011;11325;55.686;37.566;2024-01-25T00:18:59;16.62;;;7.97;;
22314;SDS011;11325;55.686;37.566;2024-01-25T00:21:28;23.70;;;10.35;;
22314;SDS011;11325;55.686;37.566;2024-01-25T00:23:56;29.32;;;9.83;;
22314;SDS011;11325;55.686;37.566;2024-01-25T00:26:25;21.73;;;9.13;;
22314;SDS011;11325;55.686;37.566;2024-01-25T00:28:54;26.55;;;10.98;;
22314;SDS011;11325;55.686;37.566;2024-01-25T00:31:22;27.32;;;9.65;;
22314;SDS011;11325;55.686;37.566;2024-01-25T00:33:51;18.02;;;8.70;;
22314;SDS011;11325;55.686;37.566;2024-01-25T00:36:20;19.80;;;9.30;;
22314;SDS011;11325;55.686;37.566;2024-01-25T00:38:49;24.67;;;10.58;;
22314;SDS011;11325;55.686;37.566;2024-01-25T00:41:18;21.93;;;9.63;;
22314;SDS011;11325;55.686;37.566;2024-01-25T00:43:47;21.27;;;9.83;;
22314;SDS011;11325;55.686;37.566;2024-01-25T00:46:16;21.42;;;9.13;;
22314;SDS011;11325;55.686;37.566;2024-01-25T00:48:45;21.60;;;9.48;;
22314;SDS011;11325;55.686;37.566;2024-01-25T00:51:14;23.02;;;8.68;;
22314;SDS011;11325;55.686;37.566;2024-01-25T00:53:44;23.05;;;9.63;;
22314;SDS011;11325;55.686;37.566;2024-01-25T00:56:13;22.42;;;9.60;;
22314;SDS011;11325;55.686;37.566;2024-01-25T00:58:42;22.45;;;9.98;;
22314;SDS011;11325;55.686;37.566;2024-01-25T01:01:11;23.55;;;10.05;;
22314;SDS011;11325;55.686;37.566;2024-01-25T01:03:40;24.65;;;10.20;;
22314;SDS011;11325;55.686;37.566;2024-01-25T01:06:09;23.80;;;10.30;;
22314;SDS011;11325;55.686;37.566;2024-01-25T01:08:39;24.02;;;9.75;;
22314;SDS011;11325;55.686;37.566;2024-01-25T01:11:07;20.72;;;9.95;;
22314;SDS011;11325;55.686;37.566;2024-01-25T01:13:36;24.07;;;10.58;;
22314;SDS011;11325;55.686;37.566;2024-01-25T01:16:05;23.02;;;9.95;;
22314;SDS011;11325;55.686;37.566;2024-01-25T01:18:34;25.88;;;10.38;;
22314;SDS011;11325;55.686;37.566;2024-01-25T01:21:02;23.87;;;8.68;;
22314;SDS011;11325;55.686;37.566;2024-01-25T01:23:31;22.75;;;9.70;;
22314;SDS011;11325;55.686;37.566;2024-01-25T01:26:01;26.73;;;9.73;;
22314;SDS011;11325;55.686;37.566;2024-01-25T01:28:30;20.68;;;9.85;;
22314;SDS011;11325;55.686;37.566;2024-01-25T01:30:58;20.48;;;9.53;;
22314;SDS011;11325;55.686;37.566;2024-01-25T01:33:27;20.68;;;7.95;;
22314;SDS011;11325;55.686;37.566;2024-01-25T01:35:56;22.10;;;8.85;;
22314;SDS011;11325;55.686;37.566;2024-01-25T01:38:24;23.45;;;8.88;;
22314;SDS011;11325;55.686;37.566;2024-01-25T01:40:53;23.45;;;8.60;;
22314;SDS011;11325;55.686;37.566;2024-01-25T01:43:22;22.42;;;8.05;;
22314;SDS011;11325;55.686;37.566;2024-01-25T01:45:51;18.65;;;8.43;;
22314;SDS011;11325;55.686;37.566;2024-01-25T01:48:19;22.35;;;8.88;;
22314;SDS011;11325;55.686;37.566;2024-01-25T01:50:48;21.55;;;7.87;;
22314;SDS011;11325;55.686;37.566;2024-01-25T01:53:17;17.10;;;7.87;;
22314;SDS011;11325;55.686;37.566;2024-01-25T01:55:46;17.37;;;8.63;;
22314;SDS011;11325;55.686;37.566;2024-01-25T01:58:15;19.80;;;7.95;;
22314;SDS011;11325;55.686;37.566;2024-01-25T02:00:43;12.60;;;6.85;;
22314;SDS011;11325;55.686;37.566;2024-01-25T02:03:13;20.55;;;8.10;;
22314;SDS011;11325;55.686;37.566;2024-01-25T02:05:42;18.10;;;7.58;;
22314;SDS011;11325;55.686;37.566;2024-01-25T02:08:10;19.60;;;7.58;;
22314;SDS011;11325;55.686;37.566;2024-01-25T02:10:40;19.73;;;8.45;;
22314;SDS011;11325;55.686;37.566;2024-01-25T02:13:09;13.60;;;6.37;;
22314;SDS011;11325;55.686;37.566;2024-01-25T02:15:37;14.43;;;6.15;;
22314;SDS011;11325;55.686;37.566;2024-01-25T02:18:06;18.45;;;6.92;;
22314;SDS011;11325;55.686;37.566;2024-01-25T02:20:35;18.90;;;7.53;;
22314;SDS011;11325;55.686;37.566;2024-01-25T02:23:04;11.78;;;6.25;;
22314;SDS011;11325;55.686;37.566;2024-01-25T02:25:32;18.77;;;7.80;;
22314;SDS011;11325;55.686;37.566;2024-01-25T02:28:01;18.02;;;7.05;;
22314;SDS011;11325;55.686;37.566;2024-01-25T02:30:29;17.60;;;7.35;;
22314;SDS011;11325;55.686;37.566;2024-01-25T02:32:58;17.57;;;6.90;;
22314;SDS011;11325;55.686;37.566;2024-01-25T02:35:27;20.90;;;7.12;;
22314;SDS011;11325;55.686;37.566;2024-01-25T02:37:55;15.48;;;7.17;;
22314;SDS011;11325;55.686;37.566;2024-01-25T02:40:24;22.52;;;7.25;;
22314;SDS011;11325;55.686;37.566;2024-01-25T02:42:53;14.73;;;7.78;;
22314;SDS011;11325;55.686;37.566;2024-01-25T02:45:22;17.45;;;7.40;;
22314;SDS011;11325;55.686;37.566;2024-01-25T02:47:50;17.20;;;7.03;;
22314;SDS011;11325;55.686;37.566;2024-01-25T02:50:19;18.62;;;7.72;;
22314;SDS011;11325;55.686;37.566;2024-01-25T02:52:48;16.57;;;7.90;;
22314;SDS011;11325;55.686;37.566;2024-01-25T02:55:18;18.87;;;7.72;;
22314;SDS011;11325;55.686;37.566;2024-01-25T02:57:47;15.03;;;7.15;;
22314;SDS011;11325;55.686;37.566;2024-01-25T03:00:16;16.25;;;7.45;;
22314;SDS011;11325;55.686;37.566;2024-01-25T03:02:44;18.20;;;7.15;;
22314;SDS011;11325;55.686;37.566;2024-01-25T03:05:13;15.15;;;6.70;;
22314;SDS011;11325;55.686;37.566;2024-01-25T03:07:42;14.05;;;7.45;;
22314;SDS011;11325;55.686;37.566;2024-01-25T03:10:10;18.55;;;6.55;;
22314;SDS011;11325;55.686;37.566;2024-01-25T03:12:39;19.90;;;6.95;;
22314;SDS011;11325;55.686;37.566;2024-01-25T03:15:08;16.62;;;6.37;;
22314;SDS011;11325;55.686;37.566;2024-01-25T03:17:37;14.05;;;7.17;;
22314;SDS011;11325;55.686;37.566;2024-01-25T03:20:06;15.53;;;6.85;;
22314;SDS011;11325;55.686;37.566;2024-01-25T03:22:35;14.83;;;6.58;;
22314;SDS011;11325;55.686;37.566;2024-01-25T03:25:04;17.40;;;7.85;;
22314;SDS011;11325;55.686;37.566;2024-01-25T03:27:33;12.98;;;6.10;;
22314;SDS011;11325;55.686;37.566;2024-01-25T03:30:02;12.55;;;6.58;;
22314;SDS011;11325;55.686;37.566;2024-01-25T03:32:35;15.20;;;7.12;;
22314;SDS011;11325;55.686;37.566;2024-01-25T03:35:04;11.35;;;5.75;;
22314;SDS011;11325;55.686;37.566;2024-01-25T03:37:32;10.35;;;5.58;;
22314;SDS011;11325;55.686;37.566;2024-01-25T03:40:01;14.87;;;5.70;;
22314;SDS011;11325;55.686;37.566;2024-01-25T03:42:31;13.45;;;6.35;;
22314;SDS011;11325;55.686;37.566;2024-01-25T03:44:59;11.83;;;6.05;;
22314;SDS011;11325;55.686;37.566;2024-01-25T03:47:29;15.93;;;6.15;;
22314;SDS011;11325;55.686;37.566;2024-01-25T03:49:58;11.40;;;5.00;;
22314;SDS011;11325;55.686;37.566;2024-01-25T03:52:28;14.03;;;5.95;;
22314;SDS011;11325;55.686;37.566;2024-01-25T03:54:58;12.98;;;6.45;;
22314;SDS011;11325;55.686;37.566;2024-01-25T03:57:27;14.65;;;5.22;;
22314;SDS011;11325;55.686;37.566;2024-01-25T03:59:55;13.40;;;6.03;;
22314;SDS011;11325;55.686;37.566;2024-01-25T04:02:24;13.40;;;5.65;;
22314;SDS011;11325;55.686;37.566;2024-01-25T04:04:53;14.70;;;6.10;;
22314;SDS011;11325;55.686;37.566;2024-01-25T04:07:21;10.53;;;5.87;;
22314;SDS011;11325;55.686;37.566;2024-01-25T04:09:50;14.47;;;5.65;;
22314;SDS011;11325;55.686;37.566;2024-01-25T04:12:19;17.95;;;7.00;;
22314;SDS011;11325;55.686;37.566;2024-01-25T04:14:47;10.43;;;5.60;;
22314;SDS011;11325;55.686;37.566;2024-01-25T04:17:16;15.58;;;6.70;;
22314;SDS011;11325;55.686;37.566;2024-01-25T04:19:45;10.88;;;5.80;;
22314;SDS011;11325;55.686;37.566;2024-01-25T04:22:13;10.82;;;5.33;;
22314;SDS011;11325;55.686;37.566;2024-01-25T04:24:42;13.68;;;6.12;;
22314;SDS011;11325;55.686;37.566;2024-01-25T04:27:12;15.55;;;6.45;;
22314;SDS011;11325;55.686;37.566;2024-01-25T04:29:40;10.75;;;5.12;;
22314;SDS011;11325;55.686;37.566;2024-01-25T04:32:12;11.80;;;5.72;;
22314;SDS011;11325;55.686;37.566;2024-01-25T04:34:40;13.70;;;6.65;;
22314;SDS011;11325;55.686;37.566;2024-01-25T04:37:09;13.68;;;6.60;;
22314;SDS011;11325;55.686;37.566;2024-01-25T04:39:38;11.90;;;5.72;;
22314;SDS011;11325;55.686;37.566;2024-01-25T04:42:07;11.97;;;5.40;;
22314;SDS011;11325;55.686;37.566;2024-01-25T04:44:36;11.70;;;6.10;;
22314;SDS011;11325;55.686;37.566;2024-01-25T04:47:05;12.28;;;6.25;;
22314;SDS011;11325;55.686;37.566;2024-01-25T04:49:33;12.90;;;6.47;;
22314;SDS011;11325;55.686;37.566;2024-01-25T04:52:03;13.58;;;6.42;;
22314;SDS011;11325;55.686;37.566;2024-01-25T04:54:31;12.28;;;5.62;;
22314;SDS011;11325;55.686;37.566;2024-01-25T04:57:00;13.03;;;5.35;;
22314;SDS011;11325;55.686;37.566;2024-01-25T04:59:30;12.40;;;5.83;;
22314;SDS011;11325;55.686;37.566;2024-01-25T05:01:58;13.22;;;6.05;;
22314;SDS011;11325;55.686;37.566;2024-01-25T05:04:28;11.22;;;5.40;;
22314;SDS011;11325;55.686;37.566;2024-01-25T05:06:58;9.70;;;6.03;;
22314;SDS011;11325;55.686;37.566;2024-01-25T05:09:26;15.98;;;6.20;;
22314;SDS011;11325;55.686;37.566;2024-01-25T05:11:55;13.70;;;5.87;;
22314;SDS011;11325;55.686;37.566;2024-01-25T05:14:25;12.80;;;6.25;;
22314;SDS011;11325;55.686;37.566;2024-01-25T05:16:54;13.88;;;6.50;;
22314;SDS011;11325;55.686;37.566;2024-01-25T05:19:23;19.87;;;6.53;;
22314;SDS011;11325;55.686;37.566;2024-01-25T05:21:53;10.95;;;5.35;;
22314;SDS011;11325;55.686;37.566;2024-01-25T05:24:21;12.23;;;5.60;;
22314;SDS011;11325;55.686;37.566;2024-01-25T05:26:50;13.98;;;5.47;;
22314;SDS011;11325;55.686;37.566;2024-01-25T05:29:19;15.85;;;6.15;;
22314;SDS011;11325;55.686;37.566;2024-01-25T05:31:47;12.95;;;6.20;;
22314;SDS011;11325;55.686;37.566;2024-01-25T05:34:17;14.53;;;6.22;;
22314;SDS011;11325;55.686;37.566;2024-01-25T05:36:46;15.13;;;5.95;;
22314;SDS011;11325;55.686;37.566;2024-01-25T05:39:15;13.60;;;6.50;;
22314;SDS011;11325;55.686;37.566;2024-01-25T05:41:44;14.65;;;5.55;;
22314;SDS011;11325;55.686;37.566;2024-01-25T05:44:13;12.13;;;6.20;;
22314;SDS011;11325;55.686;37.566;2024-01-25T05:46:42;10.30;;;5.87;;
22314;SDS011;11325;55.686;37.566;2024-01-25T05:49:11;11.95;;;6.08;;
22314;SDS011;11325;55.686;37.566;2024-01-25T05:51:39;14.33;;;6.50;;
22314;SDS011;11325;55.686;37.566;2024-01-25T05:54:08;14.95;;;6.25;;
22314;SDS011;11325;55.686;37.566;2024-01-25T05:56:37;11.85;;;6.08;;
22314;SDS011;11325;55.686;37.566;2024-01-25T05:59:05;13.25;;;6.37;;
22314;SDS011;11325;55.686;37.566;2024-01-25T06:01:34;12.53;;;6.50;;
22314;SDS011;11325;55.686;37.566;2024-01-25T06:04:03;16.87;;;6.80;;
22314;SDS011;11325;55.686;37.566;2024-01-25T06:06:31;13.50;;;6.58;;
22314;SDS011;11325;55.686;37.566;2024-01-25T06:09:00;13.38;;;6.47;;
22314;SDS011;11325;55.686;37.566;2024-01-25T06:11:29;11.83;;;6.47;;
22314;SDS011;11325;55.686;37.566;2024-01-25T06:13:58;16.35;;;7.08;;
22314;SDS011;11325;55.686;37.566;2024-01-25T06:16:26;14.65;;;7.42;;
22314;SDS011;11325;55.686;37.566;2024-01-25T06:18:55;21.02;;;7.08;;
22314;SDS011;11325;55.686;37.566;2024-01-25T06:21:23;19.07;;;8.30;;
22314;SDS011;11325;55.686;37.566;2024-01-25T06:23:52;13.60;;;7.03;;
22314;SDS011;11325;55.686;37.566;2024-01-25T06:26:21;15.23;;;6.97;;
22314;SDS011;11325;55.686;37.566;2024-01-25T06:28:49;20.08;;;7.75;;
22314;SDS011;11325;55.686;37.566;2024-01-25T06:31:18;15.38;;;7.78;;
22314;SDS011;11325;55.686;37.566;2024-01-25T06:33:47;15.60;;;7.17;;
22314;SDS011;11325;55.686;37.566;2024-01-25T06:36:17;18.48;;;7.33;;
22314;SDS011;11325;55.686;37.566;2024-01-25T06:38:45;20.95;;;7.85;;
22314;SDS011;11325;55.686;37.566;2024-01-25T06:41:14;18.07;;;7.83;;
22314;SDS011;11325;55.686;37.566;2024-01-25T06:43:47;15.93;;;8.48;;
22314;SDS011;11325;55.686;37.566;2024-01-25T06:46:14;13.88;;;7.55;;
22314;SDS011;11325;55.686;37.566;2024-01-25T06:48:43;21.80;;;8.13;;
22314;SDS011;11325;55.686;37.566;2024-01-25T06:51:12;18.85;;;7.90;;
22314;SDS011;11325;55.686;37.566;2024-01-25T06:53:41;21.70;;;9.00;;
22314;SDS011;11325;55.686;37.566;2024-01-25T06:56:10;14.40;;;7.65;;
22314;SDS011;11325;55.686;37.566;2024-01-25T06:58:39;15.13;;;7.90;;
22314;SDS011;11325;55.686;37.566;2024-01-25T07:01:08;22.05;;;8.33;;
22314;SDS011;11325;55.686;37.566;2024-01-25T07:03:37;16.20;;;8.10;;
22314;SDS011;11325;55.686;37.566;2024-01-25T07:06:06;17.23;;;7.97;;
22314;SDS011;11325;55.686;37.566;2024-01-25T07:08:34;16.15;;;7.67;;
22314;SDS011;11325;55.686;37.566;2024-01-25T07:11:03;18.73;;;7.60;;
22314;SDS011;11325;55.686;37.566;2024-01-25T07:13:32;17.82;;;8.43;;
22314;SDS011;11325;55.686;37.566;2024-01-25T07:16:00;12.60;;;7.70;;
22314;SDS011;11325;55.686;37.566;2024-01-25T07:18:29;14.20;;;7.72;;
22314;SDS011;11325;55.686;37.566;2024-01-25T07:20:57;17.02;;;8.23;;
22314;SDS011;11325;55.686;37.566;2024-01-25T07:23:26;13.48;;;7.42;;
22314;SDS011;11325;55.686;37.566;2024-01-25T07:25:55;17.27;;;7.75;;
22314;SDS011;11325;55.686;37.566;2024-01-25T07:28:23;18.87;;;8.15;;
22314;SDS011;11325;55.686;37.566;2024-01-25T07:30:52;24.98;;;7.15;;
22314;SDS011;11325;55.686;37.566;2024-01-25T07:33:21;20.17;;;8.03;;
22314;SDS011;11325;55.686;37.566;2024-01-25T07:35:50;16.40;;;7.37;;
22314;SDS011;11325;55.686;37.566;2024-01-25T07:38:18;12.55;;;7.08;;
22314;SDS011;11325;55.686;37.566;2024-01-25T07:40:47;15.13;;;8.70;;
22314;SDS011;11325;55.686;37.566;2024-01-25T07:43:16;14.75;;;8.15;;
22314;SDS011;11325;55.686;37.566;2024-01-25T07:45:48;15.90;;;7.70;;
22314;SDS011;11325;55.686;37.566;2024-01-25T07:48:18;16.67;;;7.90;;
22314;SDS011;11325;55.686;37.566;2024-01-25T07:50:47;14.55;;;7.15;;
22314;SDS011;11325;55.686;37.566;2024-01-25T07:53:16;17.70;;;8.45;;
22314;SDS011;11325;55.686;37.566;2024-01-25T07:55:45;13.83;;;7.33;;
22314;SDS011;11325;55.686;37.566;2024-01-25T07:58:14;13.15;;;6.72;;
22314;SDS011;11325;55.686;37.566;2024-01-25T08:00:43;18.15;;;8.10;;
22314;SDS011;11325;55.686;37.566;2024-01-25T08:03:14;13.08;;;7.30;;
22314;SDS011;11325;55.686;37.566;2024-01-25T08:05:43;16.65;;;7.87;;
22314;SDS011;11325;55.686;37.566;2024-01-25T08:08:11;17.62;;;7.42;;
22314;SDS011;11325;55.686;37.566;2024-01-25T08:10:40;12.73;;;7.15;;
22314;SDS011;11325;55.686;37.566;2024-01-25T08:13:09;17.70;;;6.75;;
22314;SDS011;11325;55.686;37.566;2024-01-25T08:15:38;16.27;;;7.42;;
22314;SDS011;11325;55.686;37.566;2024-01-25T08:18:06;15.28;;;6.45;;
22314;SDS011;11325;55.686;37.566;2024-01-25T08:20:36;15.53;;;7.65;;
22314;SDS011;11325;55.686;37.566;2024-01-25T08:23:05;15.08;;;6.97;;
22314;SDS011;11325;55.686;37.566;2024-01-25T08:25:35;18.27;;;6.60;;
22314;SDS011;11325;55.686;37.566;2024-01-25T08:28:04;13.30;;;6.37;;
22314;SDS011;11325;55.686;37.566;2024-01-25T08:30:33;12.53;;;7.22;;
22314;SDS011;11325;55.686;37.566;2024-01-25T08:33:02;16.10;;;7.33;;
22314;SDS011;11325;55.686;37.566;2024-01-25T08:35:30;11.48;;;5.95;;
22314;SDS011;11325;55.686;37.566;2024-01-25T08:37:59;15.13;;;6.67;;
22314;SDS011;11325;55.686;37.566;2024-01-25T08:40:29;14.73;;;6.60;;
22314;SDS011;11325;55.686;37.566;2024-01-25T08:42:57;17.52;;;6.12;;
22314;SDS011;11325;55.686;37.566;2024-01-25T08:45:27;10.03;;;5.97;;
22314;SDS011;11325;55.686;37.566;2024-01-25T08:47:56;14.23;;;6.58;;
22314;SDS011;11325;55.686;37.566;2024-01-25T08:50:24;13.62;;;6.78;;
22314;SDS011;11325;55.686;37.566;2024-01-25T08:52:53;9.90;;;5.12;;
22314;SDS011;11325;55.686;37.566;2024-01-25T08:55:21;10.93;;;5.47;;
22314;SDS011;11325;55.686;37.566;2024-01-25T08:57:50;10.58;;;5.53;;
22314;SDS011;11325;55.686;37.566;2024-01-25T09:00:19;10.95;;;5.37;;
22314;SDS011;11325;55.686;37.566;2024-01-25T09:02:47;10.45;;;5.50;;
22314;SDS011;11325;55.686;37.566;2024-01-25T09:05:16;11.63;;;5.42;;
22314;SDS011;11325;55.686;37.566;2024-01-25T09:07:46;12.33;;;5.70;;
22314;SDS011;11325;55.686;37.566;2024-01-25T09:10:15;11.88;;;5.87;;
22314;SDS011;11325;55.686;37.566;2024-01-25T09:12:44;10.08;;;5.97;;
22314;SDS011;11325;55.686;37.566;2024-01-25T09:15:13;12.45;;;5.75;;
22314;SDS011;11325;55.686;37.566;2024-01-25T09:17:41;11.63;;;5.75;;
22314;SDS011;11325;55.686;37.566;2024-01-25T09:20:11;14.58;;;6.55;;
22314;SDS011;11325;55.686;37.566;2024-01-25T09:22:40;11.85;;;5.80;;
22314;SDS011;11325;55.686;37.566;2024-01-25T09:25:09;15.32;;;6.65;;
22314;SDS011;11325;55.686;37.566;2024-01-25T09:27:38;13.00;;;6.03;;
22314;SDS011;11325;55.686;37.566;2024-01-25T09:30:07;12.23;;;6.42;;
22314;SDS011;11325;55.686;37.566;2024-01-25T09:32:35;12.47;;;6.60;;
22314;SDS011;11325;55.686;37.566;2024-01-25T09:35:04;16.10;;;6.67;;
22314;SDS011;11325;55.686;37.566;2024-01-25T09:37:33;10.93;;;6.37;;
22314;SDS011;11325;55.686;37.566;2024-01-25T09:40:02;14.70;;;5.47;;
22314;SDS011;11325;55.686;37.566;2024-01-25T09:42:31;11.85;;;6.28;;
22314;SDS011;11325;55.686;37.566;2024-01-25T09:45:00;13.65;;;6.03;;
22314;SDS011;11325;55.686;37.566;2024-01-25T09:47:32;12.18;;;5.85;;
22314;SDS011;11325;55.686;37.566;2024-01-25T09:50:04;11.10;;;5.97;;
22314;SDS011;11325;55.686;37.566;2024-01-25T09:52:33;11.80;;;5.42;;
22314;SDS011;11325;55.686;37.566;2024-01-25T09:55:03;11.55;;;5.37;;
22314;SDS011;11325;55.686;37.566;2024-01-25T09:57:35;12.00;;;6.10;;
22314;SDS011;11325;55.686;37.566;2024-01-25T10:00:05;10.28;;;5.50;;
22314;SDS011;11325;55.686;37.566;2024-01-25T10:02:35;17.98;;;5.75;;
22314;SDS011;11325;55.686;37.566;2024-01-25T10:05:04;9.28;;;5.92;;
22314;SDS011;11325;55.686;37.566;2024-01-25T10:10:07;12.28;;;5.45;;
22314;SDS011;11325;55.686;37.566;2024-01-25T10:12:36;11.10;;;5.87;;
22314;SDS011;11325;55.686;37.566;2024-01-25T10:15:06;8.55;;;5.12;;
22314;SDS011;11325;55.686;37.566;2024-01-25T10:17:35;14.75;;;5.05;;
22314;SDS011;11325;55.686;37.566;2024-01-25T10:20:06;15.43;;;5.87;;
22314;SDS011;11325;55.686;37.566;2024-01-25T10:22:38;12.07;;;6.03;;
22314;SDS011;11325;55.686;37.566;2024-01-25T10:25:13;10.18;;;5.47;;
22314;SDS011;11325;55.686;37.566;2024-01-25T10:27:42;9.85;;;5.15;;
22314;SDS011;11325;55.686;37.566;2024-01-25T10:30:12;10.35;;;5.58;;
22314;SDS011;11325;55.686;37.566;2024-01-25T10:32:40;14.25;;;5.50;;
22314;SDS011;11325;55.686;37.566;2024-01-25T10:35:09;11.93;;;5.70;;
22314;SDS011;11325;55.686;37.566;2024-01-25T10:37:39;10.10;;;5.30;;
22314;SDS011;11325;55.686;37.566;2024-01-25T10:40:09;14.55;;;6.60;;
22314;SDS011;11325;55.686;37.566;2024-01-25T10:42:38;12.47;;;6.55;;
22314;SDS011;11325;55.686;37.566;2024-01-25T10:45:06;16.45;;;7.30;;
22314;SDS011;11325;55.686;37.566;2024-01-25T10:47:35;12.40;;;6.10;;
22314;SDS011;11325;55.686;37.566;2024-01-25T10:50:05;11.53;;;6.62;;
22314;SDS011;11325;55.686;37.566;2024-01-25T10:52:36;15.80;;;6.55;;
22314;SDS011;11325;55.686;37.566;2024-01-25T10:55:07;19.20;;;6.37;;
22314;SDS011;11325;55.686;37.566;2024-01-25T10:57:36;12.50;;;6.42;;
22314;SDS011;11325;55.686;37.566;2024-01-25T11:00:15;20.05;;;7.62;;
22314;SDS011;11325;55.686;37.566;2024-01-25T11:02:41;11.00;;;6.42;;
22314;SDS011;11325;55.686;37.566;2024-01-25T11:05:11;15.80;;;7.70;;
22314;SDS011;11325;55.686;37.566;2024-01-25T11:07:46;15.20;;;7.45;;
22314;SDS011;11325;55.686;37.566;2024-01-25T11:10:24;14.78;;;7.58;;
22314;SDS011;11325;55.686;37.566;2024-01-25T11:12:49;14.13;;;7.00;;
22314;SDS011;11325;55.686;37.566;2024-01-25T11:15:29;14.60;;;7.03;;
22314;SDS011;11325;55.686;37.566;2024-01-25T11:17:55;20.23;;;8.05;;
22314;SDS011;11325;55.686;37.566;2024-01-25T11:20:24;16.75;;;6.87;;
22314;SDS011;11325;55.686;37.566;2024-01-25T11:23:04;15.98;;;7.37;;
22314;SDS011;11325;55.686;37.566;2024-01-25T11:25:38;18.62;;;7.47;;
22314;SDS011;11325;55.686;37.566;2024-01-25T11:28:08;13.55;;;6.95;;
22314;SDS011;11325;55.686;37.566;2024-01-25T11:30:35;15.53;;;7.42;;
22314;SDS011;11325;55.686;37.566;2024-01-25T11:33:04;16.80;;;7.50;;
22314;SDS011;11325;55.686;37.566;2024-01-25T11:35:33;15.70;;;7.17;;
22314;SDS011;11325;55.686;37.566;2024-01-25T11:38:02;15.35;;;7.55;;
22314;SDS011;11325;55.686;37.566;2024-01-25T11:40:32;17.52;;;7.25;;
22314;SDS011;11325;55.686;37.566;2024-01-25T11:43:02;18.65;;;7.53;;
22314;SDS011;11325;55.686;37.566;2024-01-25T11:45:34;14.93;;;7.28;;
22314;SDS011;11325;55.686;37.566;2024-01-25T11:48:05;16.45;;;8.55;;
22314;SDS011;11325;55.686;37.566;2024-01-25T11:50:33;17.27;;;6.72;;
22314;SDS011;11325;55.686;37.566;2024-01-25T11:53:03;18.95;;;7.60;;
22314;SDS011;11325;55.686;37.566;2024-01-25T11:55:32;19.48;;;8.60;;
22314;SDS011;11325;55.686;37.566;2024-01-25T11:58:01;21.30;;;8.35;;
22314;SDS011;11325;55.686;37.566;2024-01-25T12:00:29;16.97;;;8.25;;
22314;SDS011;11325;55.686;37.566;2024-01-25T12:02:58;13.50;;;8.15;;
22314;SDS011;11325;55.686;37.566;2024-01-25T12:05:27;19.82;;;7.78;;
22314;SDS011;11325;55.686;37.566;2024-01-25T12:07:55;19.70;;;8.55;;
22314;SDS011;11325;55.686;37.566;2024-01-25T12:10:25;21.60;;;8.33;;
22314;SDS011;11325;55.686;37.566;2024-01-25T12:12:54;17.92;;;8.10;;
22314;SDS011;11325;55.686;37.566;2024-01-25T12:15:24;20.40;;;7.70;;
22314;SDS011;11325;55.686;37.566;2024-01-25T12:17:52;21.57;;;9.00;;
22314;SDS011;11325;55.686;37.566;2024-01-25T12:20:21;21.80;;;9.03;;
22314;SDS011;11325;55.686;37.566;2024-01-25T12:22:50;19.85;;;8.30;;
22314;SDS011;11325;55.686;37.566;2024-01-25T12:25:18;22.50;;;9.33;;
22314;SDS011;11325;55.686;37.566;2024-01-25T12:27:47;18.27;;;8.58;;
22314;SDS011;11325;55.686;37.566;2024-01-25T12:30:18;19.40;;;8.53;;
22314;SDS011;11325;55.686;37.566;2024-01-25T12:32:48;20.00;;;8.45;;
22314;SDS011;11325;55.686;37.566;2024-01-25T12:35:17;17.57;;;8.58;;
22314;SDS011;11325;55.686;37.566;2024-01-25T12:37:46;17.17;;;8.55;;
22314;SDS011;11325;55.686;37.566;2024-01-25T12:40:15;17.42;;;8.55;;
22314;SDS011;11325;55.686;37.566;2024-01-25T12:42:44;16.07;;;8.45;;
22314;SDS011;11325;55.686;37.566;2024-01-25T12:45:13;26.48;;;9.88;;
22314;SDS011;11325;55.686;37.566;2024-01-25T12:47:41;18.98;;;9.00;;
22314;SDS011;11325;55.686;37.566;2024-01-25T12:50:10;26.48;;;8.83;;
22314;SDS011;11325;55.686;37.566;2024-01-25T12:52:39;19.15;;;8.53;;
22314;SDS011;11325;55.686;37.566;2024-01-25T12:55:07;22.82;;;9.48;;
22314;SDS011;11325;55.686;37.566;2024-01-25T12:57:36;21.00;;;9.63;;
22314;SDS011;11325;55.686;37.566;2024-01-25T13:00:05;24.45;;;9.48;;
22314;SDS011;11325;55.686;37.566;2024-01-25T13:02:34;20.17;;;9.28;;
22314;SDS011;11325;55.686;37.566;2024-01-25T13:05:02;19.77;;;9.60;;
22314;SDS011;11325;55.686;37.566;2024-01-25T13:07:31;20.82;;;8.98;;
22314;SDS011;11325;55.686;37.566;2024-01-25T13:10:00;20.52;;;9.15;;
22314;SDS011;11325;55.686;37.566;2024-01-25T13:12:29;21.27;;;9.43;;
22314;SDS011;11325;55.686;37.566;2024-01-25T13:14:59;22.30;;;8.35;;
22314;SDS011;11325;55.686;37.566;2024-01-25T13:17:29;22.65;;;9.83;;
22314;SDS011;11325;55.686;37.566;2024-01-25T13:19:57;20.02;;;10.13;;
22314;SDS011;11325;55.686;37.566;2024-01-25T13:22:26;22.48;;;9.93;;
22314;SDS011;11325;55.686;37.566;2024-01-25T13:24:55;21.25;;;10.30;;
22314;SDS011;11325;55.686;37.566;2024-01-25T13:27:23;19.30;;;9.33;;
22314;SDS011;11325;55.686;37.566;2024-01-25T13:29:52;18.02;;;9.13;;
22314;SDS011;11325;55.686;37.566;2024-01-25T13:32:22;20.05;;;9.25;;
22314;SDS011;11325;55.686;37.566;2024-01-25T13:34:51;19.67;;;10.38;;
22314;SDS011;11325;55.686;37.566;2024-01-25T13:37:21;26.57;;;11.73;;
22314;SDS011;11325;55.686;37.566;2024-01-25T13:39:50;33.95;;;10.25;;
22314;SDS011;11325;55.686;37.566;2024-01-25T13:42:18;23.15;;;10.38;;
22314;SDS011;11325;55.686;37.566;2024-01-25T13:44:47;22.05;;;10.68;;
22314;SDS011;11325;55.686;37.566;2024-01-25T13:47:15;19.92;;;10.20;;
22314;SDS011;11325;55.686;37.566;2024-01-25T13:49:44;23.65;;;11.25;;
22314;SDS011;11325;55.686;37.566;2024-01-25T13:52:17;27.27;;;11.78;;
22314;SDS011;11325;55.686;37.566;2024-01-25T13:54:48;21.62;;;10.55;;
22314;SDS011;11325;55.686;37.566;2024-01-25T13:57:17;22.13;;;10.68;;
22314;SDS011;11325;55.686;37.566;2024-01-25T13:59:47;25.23;;;12.05;;
22314;SDS011;11325;55.686;37.566;2024-01-25T14:02:16;25.27;;;11.25;;
22314;SDS011;11325;55.686;37.566;2024-01-25T14:04:45;25.05;;;12.07;;
22314;SDS011;11325;55.686;37.566;2024-01-25T14:07:15;22.02;;;11.40;;
22314;SDS011;11325;55.686;37.566;2024-01-25T14:09:44;25.10;;;12.30;;
22314;SDS011;11325;55.686;37.566;2024-01-25T14:12:13;30.90;;;12.30;;
22314;SDS011;11325;55.686;37.566;2024-01-25T14:14:42;25.25;;;11.53;;
22314;SDS011;11325;55.686;37.566;2024-01-25T14:17:11;22.22;;;11.63;;
22314;SDS011;11325;55.686;37.566;2024-01-25T14:19:39;24.98;;;11.65;;
22314;SDS011;11325;55.686;37.566;2024-01-25T14:22:08;27.10;;;11.90;;
22314;SDS011;11325;55.686;37.566;2024-01-25T14:24:36;24.87;;;11.90;;
22314;SDS011;11325;55.686;37.566;2024-01-25T14:27:05;34.43;;;12.70;;
22314;SDS011;11325;55.686;37.566;2024-01-25T14:29:34;29.35;;;13.45;;
22314;SDS011;11325;55.686;37.566;2024-01-25T14:32:02;24.63;;;12.05;;
22314;SDS011;11325;55.686;37.566;2024-01-25T14:34:32;29.18;;;12.18;;